sensor_id;sensor_type;location;lat;lon;timestamp;P1;durP1;ratioP1;P2;durP2;ratioP2
48667;SDS011;34453;52.198;5.004;2023-04-15T00:00:03;9.25;;;5.00;;
48667;SDS011;34453;52.198;5.004;2023-04-15T00:02:29;6.32;;;5.25;;
48667;SDS011;34453;52.198;5.004;2023-04-15T00:04:55;7.65;;;4.72;;
48667;SDS011;34453;52.198;5.004;2023-04-15T00:07:20;9.40;;;5.05;;
48667;SDS011;34453;52.198;5.004;2023-04-15T00:09:45;5.75;;;4.55;;
48667;SDS011;34453;52.198;5.004;2023-04-15T00:12:11;4.80;;;4.40;;
48667;SDS011;34453;52.198;5.004;2023-04-15T00:14:37;12.48;;;5.00;;
48667;SDS011;34453;52.198;5.004;2023-04-15T00:17:03;7.93;;;4.85;;
48667;SDS011;34453;52.198;5.004;2023-04-15T00:19:29;5.63;;;4.63;;
48667;SDS011;34453;52.198;5.004;2023-04-15T00:21:55;7.45;;;4.45;;
48667;SDS011;34453;52.198;5.004;2023-04-15T00:24:21;5.93;;;4.63;;
48667;SDS011;34453;52.198;5.004;2023-04-15T00:26:47;16.95;;;4.95;;
48667;SDS011;34453;52.198;5.004;2023-04-15T00:29:13;6.30;;;4.25;;
48667;SDS011;34453;52.198;5.004;2023-04-15T00:31:39;12.43;;;4.50;;
48667;SDS011;34453;52.198;5.004;2023-04-15T00:34:05;5.38;;;4.63;;
48667;SDS011;34453;52.198;5.004;2023-04-15T00:36:30;5.53;;;5.00;;
48667;SDS011;34453;52.198;5.004;2023-04-15T00:38:57;9.82;;;5.13;;
48667;SDS011;34453;52.198;5.004;2023-04-15T00:41:23;12.35;;;4.78;;
48667;SDS011;34453;52.198;5.004;2023-04-15T00:43:49;11.23;;;5.32;;
48667;SDS011;34453;52.198;5.004;2023-04-15T00:46:15;9.55;;;5.13;;
48667;SDS011;34453;52.198;5.004;2023-04-15T00:48:43;6.63;;;5.13;;
48667;SDS011;34453;52.198;5.004;2023-04-15T00:51:09;5.25;;;4.72;;
48667;SDS011;34453;52.198;5.004;2023-04-15T00:53:35;7.97;;;4.53;;
48667;SDS011;34453;52.198;5.004;2023-04-15T00:56:00;7.65;;;5.35;;
48667;SDS011;34453;52.198;5.004;2023-04-15T00:58:25;9.55;;;5.93;;
48667;SDS011;34453;52.198;5.004;2023-04-15T01:00:52;7.68;;;5.55;;
48667;SDS011;34453;52.198;5.004;2023-04-15T01:03:19;8.00;;;5.72;;
48667;SDS011;34453;52.198;5.004;2023-04-15T01:05:44;5.57;;;5.07;;
48667;SDS011;34453;52.198;5.004;2023-04-15T01:08:10;6.82;;;5.38;;
48667;SDS011;34453;52.198;5.004;2023-04-15T01:10:36;8.30;;;4.53;;
48667;SDS011;34453;52.198;5.004;2023-04-15T01:13:02;6.85;;;5.15;;
48667;SDS011;34453;52.198;5.004;2023-04-15T01:15:28;6.85;;;5.80;;
48667;SDS011;34453;52.198;5.004;2023-04-15T01:17:53;7.57;;;5.47;;
48667;SDS011;34453;52.198;5.004;2023-04-15T01:20:19;5.78;;;5.25;;
48667;SDS011;34453;52.198;5.004;2023-04-15T01:22:46;5.40;;;4.90;;
48667;SDS011;34453;52.198;5.004;2023-04-15T01:25:17;10.57;;;6.68;;
48667;SDS011;34453;52.198;5.004;2023-04-15T01:27:43;7.32;;;5.55;;
48667;SDS011;34453;52.198;5.004;2023-04-15T01:30:09;11.40;;;5.43;;
48667;SDS011;34453;52.198;5.004;2023-04-15T01:32:35;5.90;;;5.40;;
48667;SDS011;34453;52.198;5.004;2023-04-15T01:35:01;5.75;;;5.10;;
48667;SDS011;34453;52.198;5.004;2023-04-15T01:37:27;5.45;;;3.85;;
48667;SDS011;34453;52.198;5.004;2023-04-15T01:39:53;6.28;;;4.65;;
48667;SDS011;34453;52.198;5.004;2023-04-15T01:42:20;6.20;;;5.47;;
48667;SDS011;34453;52.198;5.004;2023-04-15T01:44:46;7.03;;;5.15;;
48667;SDS011;34453;52.198;5.004;2023-04-15T01:47:11;8.38;;;5.57;;
48667;SDS011;34453;52.198;5.004;2023-04-15T01:49:37;7.78;;;5.38;;
48667;SDS011;34453;52.198;5.004;2023-04-15T01:52:02;6.32;;;5.57;;
48667;SDS011;34453;52.198;5.004;2023-04-15T01:54:28;8.35;;;5.10;;
48667;SDS011;34453;52.198;5.004;2023-04-15T01:56:53;6.78;;;5.05;;
48667;SDS011;34453;52.198;5.004;2023-04-15T01:59:19;8.27;;;5.00;;
48667;SDS011;34453;52.198;5.004;2023-04-15T02:01:45;6.18;;;5.25;;
48667;SDS011;34453;52.198;5.004;2023-04-15T02:04:11;5.85;;;5.45;;
48667;SDS011;34453;52.198;5.004;2023-04-15T02:06:41;6.07;;;5.00;;
48667;SDS011;34453;52.198;5.004;2023-04-15T02:09:07;10.77;;;5.13;;
48667;SDS011;34453;52.198;5.004;2023-04-15T02:11:33;8.30;;;4.63;;
48667;SDS011;34453;52.198;5.004;2023-04-15T02:14:00;7.90;;;5.35;;
48667;SDS011;34453;52.198;5.004;2023-04-15T02:16:25;6.10;;;5.32;;
48667;SDS011;34453;52.198;5.004;2023-04-15T02:18:50;12.80;;;5.00;;
48667;SDS011;34453;52.198;5.004;2023-04-15T02:21:16;7.25;;;6.00;;
48667;SDS011;34453;52.198;5.004;2023-04-15T02:23:43;7.00;;;5.15;;
48667;SDS011;34453;52.198;5.004;2023-04-15T02:26:08;6.53;;;5.10;;
48667;SDS011;34453;52.198;5.004;2023-04-15T02:28:34;6.38;;;5.07;;
48667;SDS011;34453;52.198;5.004;2023-04-15T02:30:59;8.00;;;7.18;;
48667;SDS011;34453;52.198;5.004;2023-04-15T02:33:26;5.72;;;5.18;;
48667;SDS011;34453;52.198;5.004;2023-04-15T02:35:51;5.85;;;4.95;;
48667;SDS011;34453;52.198;5.004;2023-04-15T02:38:17;6.22;;;4.38;;
48667;SDS011;34453;52.198;5.004;2023-04-15T02:40:42;7.22;;;5.40;;
48667;SDS011;34453;52.198;5.004;2023-04-15T02:43:08;6.30;;;5.70;;
48667;SDS011;34453;52.198;5.004;2023-04-15T02:45:33;8.90;;;5.50;;
48667;SDS011;34453;52.198;5.004;2023-04-15T02:47:59;6.13;;;5.35;;
48667;SDS011;34453;52.198;5.004;2023-04-15T02:50:30;9.05;;;5.65;;
48667;SDS011;34453;52.198;5.004;2023-04-15T02:52:55;10.20;;;6.20;;
48667;SDS011;34453;52.198;5.004;2023-04-15T02:55:21;7.75;;;5.07;;
48667;SDS011;34453;52.198;5.004;2023-04-15T02:57:46;6.85;;;5.75;;
48667;SDS011;34453;52.198;5.004;2023-04-15T03:00:12;6.80;;;5.18;;
48667;SDS011;34453;52.198;5.004;2023-04-15T03:02:38;8.55;;;6.00;;
48667;SDS011;34453;52.198;5.004;2023-04-15T03:05:04;8.35;;;5.47;;
48667;SDS011;34453;52.198;5.004;2023-04-15T03:07:31;15.77;;;7.03;;
48667;SDS011;34453;52.198;5.004;2023-04-15T03:09:56;5.57;;;5.15;;
48667;SDS011;34453;52.198;5.004;2023-04-15T03:12:22;5.72;;;5.22;;
48667;SDS011;34453;52.198;5.004;2023-04-15T03:14:47;10.82;;;5.15;;
48667;SDS011;34453;52.198;5.004;2023-04-15T03:17:12;14.45;;;5.88;;
48667;SDS011;34453;52.198;5.004;2023-04-15T03:19:38;6.57;;;6.07;;
48667;SDS011;34453;52.198;5.004;2023-04-15T03:22:03;6.57;;;6.07;;
48667;SDS011;34453;52.198;5.004;2023-04-15T03:24:29;5.63;;;5.10;;
48667;SDS011;34453;52.198;5.004;2023-04-15T03:26:57;7.53;;;5.60;;
48667;SDS011;34453;52.198;5.004;2023-04-15T03:29:23;7.50;;;5.55;;
48667;SDS011;34453;52.198;5.004;2023-04-15T03:31:48;6.25;;;5.55;;
48667;SDS011;34453;52.198;5.004;2023-04-15T03:34:13;9.05;;;5.75;;
48667;SDS011;34453;52.198;5.004;2023-04-15T03:36:39;9.43;;;5.97;;
48667;SDS011;34453;52.198;5.004;2023-04-15T03:39:04;6.03;;;5.45;;
48667;SDS011;34453;52.198;5.004;2023-04-15T03:41:30;10.07;;;5.55;;
48667;SDS011;34453;52.198;5.004;2023-04-15T03:43:56;9.75;;;6.47;;
48667;SDS011;34453;52.198;5.004;2023-04-15T03:46:22;6.43;;;5.82;;
48667;SDS011;34453;52.198;5.004;2023-04-15T03:48:47;8.32;;;6.50;;
48667;SDS011;34453;52.198;5.004;2023-04-15T03:51:13;6.25;;;5.72;;
48667;SDS011;34453;52.198;5.004;2023-04-15T03:53:38;10.57;;;6.93;;
48667;SDS011;34453;52.198;5.004;2023-04-15T03:56:03;6.75;;;5.53;;
48667;SDS011;34453;52.198;5.004;2023-04-15T03:58:29;6.57;;;5.40;;
48667;SDS011;34453;52.198;5.004;2023-04-15T04:00:55;9.38;;;6.05;;
48667;SDS011;34453;52.198;5.004;2023-04-15T04:03:20;6.72;;;6.13;;
48667;SDS011;34453;52.198;5.004;2023-04-15T04:05:46;7.15;;;6.00;;
48667;SDS011;34453;52.198;5.004;2023-04-15T04:08:11;7.43;;;5.93;;
48667;SDS011;34453;52.198;5.004;2023-04-15T04:10:38;6.53;;;5.93;;
48667;SDS011;34453;52.198;5.004;2023-04-15T04:13:04;14.02;;;6.60;;
48667;SDS011;34453;52.198;5.004;2023-04-15T04:15:29;10.60;;;6.10;;
48667;SDS011;34453;52.198;5.004;2023-04-15T04:17:55;8.10;;;6.47;;
48667;SDS011;34453;52.198;5.004;2023-04-15T04:20:21;6.55;;;6.00;;
48667;SDS011;34453;52.198;5.004;2023-04-15T04:22:46;10.20;;;6.45;;
48667;SDS011;34453;52.198;5.004;2023-04-15T04:25:12;9.80;;;6.43;;
48667;SDS011;34453;52.198;5.004;2023-04-15T04:27:38;7.90;;;6.18;;
48667;SDS011;34453;52.198;5.004;2023-04-15T04:30:04;6.47;;;5.88;;
48667;SDS011;34453;52.198;5.004;2023-04-15T04:32:30;7.40;;;6.45;;
48667;SDS011;34453;52.198;5.004;2023-04-15T04:34:56;9.65;;;6.63;;
48667;SDS011;34453;52.198;5.004;2023-04-15T04:37:21;7.25;;;6.00;;
48667;SDS011;34453;52.198;5.004;2023-04-15T04:39:47;9.38;;;5.50;;
48667;SDS011;34453;52.198;5.004;2023-04-15T04:42:13;8.43;;;6.63;;
48667;SDS011;34453;52.198;5.004;2023-04-15T04:44:38;11.13;;;5.93;;
48667;SDS011;34453;52.198;5.004;2023-04-15T04:47:04;7.20;;;5.78;;
48667;SDS011;34453;52.198;5.004;2023-04-15T04:49:30;7.32;;;6.57;;
48667;SDS011;34453;52.198;5.004;2023-04-15T04:51:56;8.52;;;6.63;;
48667;SDS011;34453;52.198;5.004;2023-04-15T04:54:21;10.43;;;6.63;;
48667;SDS011;34453;52.198;5.004;2023-04-15T04:56:47;7.97;;;6.65;;
48667;SDS011;34453;52.198;5.004;2023-04-15T04:59:13;9.32;;;6.00;;
48667;SDS011;34453;52.198;5.004;2023-04-15T05:01:38;8.60;;;7.07;;
48667;SDS011;34453;52.198;5.004;2023-04-15T05:04:04;7.40;;;6.65;;
48667;SDS011;34453;52.198;5.004;2023-04-15T05:06:30;9.30;;;6.75;;
48667;SDS011;34453;52.198;5.004;2023-04-15T05:08:56;7.93;;;7.03;;
48667;SDS011;34453;52.198;5.004;2023-04-15T05:11:22;8.52;;;7.78;;
48667;SDS011;34453;52.198;5.004;2023-04-15T05:13:47;7.85;;;7.13;;
48667;SDS011;34453;52.198;5.004;2023-04-15T05:16:12;10.77;;;6.68;;
48667;SDS011;34453;52.198;5.004;2023-04-15T05:18:38;8.80;;;7.32;;
48667;SDS011;34453;52.198;5.004;2023-04-15T05:21:04;11.82;;;7.18;;
48667;SDS011;34453;52.198;5.004;2023-04-15T05:23:29;9.93;;;7.43;;
48667;SDS011;34453;52.198;5.004;2023-04-15T05:25:55;7.28;;;6.57;;
48667;SDS011;34453;52.198;5.004;2023-04-15T05:28:20;9.65;;;7.78;;
48667;SDS011;34453;52.198;5.004;2023-04-15T05:30:46;10.18;;;7.82;;
48667;SDS011;34453;52.198;5.004;2023-04-15T05:33:11;10.25;;;7.30;;
48667;SDS011;34453;52.198;5.004;2023-04-15T05:35:37;10.52;;;7.20;;
48667;SDS011;34453;52.198;5.004;2023-04-15T05:38:02;13.98;;;7.93;;
48667;SDS011;34453;52.198;5.004;2023-04-15T05:40:29;11.73;;;9.50;;
48667;SDS011;34453;52.198;5.004;2023-04-15T05:42:55;13.15;;;7.97;;
48667;SDS011;34453;52.198;5.004;2023-04-15T05:45:20;9.75;;;7.82;;
48667;SDS011;34453;52.198;5.004;2023-04-15T05:47:46;8.85;;;8.02;;
48667;SDS011;34453;52.198;5.004;2023-04-15T05:50:14;8.35;;;7.43;;
48667;SDS011;34453;52.198;5.004;2023-04-15T05:52:39;10.05;;;8.93;;
48667;SDS011;34453;52.198;5.004;2023-04-15T05:55:05;12.63;;;7.53;;
48667;SDS011;34453;52.198;5.004;2023-04-15T05:57:30;9.63;;;8.05;;
48667;SDS011;34453;52.198;5.004;2023-04-15T05:59:56;11.88;;;9.15;;
48667;SDS011;34453;52.198;5.004;2023-04-15T06:02:22;10.45;;;7.85;;
48667;SDS011;34453;52.198;5.004;2023-04-15T06:04:47;9.38;;;8.43;;
48667;SDS011;34453;52.198;5.004;2023-04-15T06:07:12;9.52;;;8.63;;
48667;SDS011;34453;52.198;5.004;2023-04-15T06:09:38;10.13;;;8.88;;
48667;SDS011;34453;52.198;5.004;2023-04-15T06:12:03;8.02;;;7.35;;
48667;SDS011;34453;52.198;5.004;2023-04-15T06:14:30;9.48;;;8.05;;
48667;SDS011;34453;52.198;5.004;2023-04-15T06:16:56;9.25;;;7.82;;
48667;SDS011;34453;52.198;5.004;2023-04-15T06:19:21;10.27;;;8.27;;
48667;SDS011;34453;52.198;5.004;2023-04-15T06:21:46;12.40;;;9.10;;
48667;SDS011;34453;52.198;5.004;2023-04-15T06:24:12;10.80;;;8.73;;
48667;SDS011;34453;52.198;5.004;2023-04-15T06:26:38;12.07;;;8.80;;
48667;SDS011;34453;52.198;5.004;2023-04-15T06:29:03;11.95;;;9.15;;
48667;SDS011;34453;52.198;5.004;2023-04-15T06:31:28;9.60;;;8.40;;
48667;SDS011;34453;52.198;5.004;2023-04-15T06:33:54;10.85;;;8.68;;
48667;SDS011;34453;52.198;5.004;2023-04-15T06:36:20;9.70;;;8.75;;
48667;SDS011;34453;52.198;5.004;2023-04-15T06:38:45;13.10;;;9.15;;
48667;SDS011;34453;52.198;5.004;2023-04-15T06:41:11;10.82;;;9.15;;
48667;SDS011;34453;52.198;5.004;2023-04-15T06:43:37;16.75;;;10.77;;
48667;SDS011;34453;52.198;5.004;2023-04-15T06:46:03;15.40;;;9.23;;
48667;SDS011;34453;52.198;5.004;2023-04-15T06:48:29;10.27;;;9.15;;
48667;SDS011;34453;52.198;5.004;2023-04-15T06:50:54;10.77;;;9.30;;
48667;SDS011;34453;52.198;5.004;2023-04-15T06:53:20;10.60;;;9.35;;
48667;SDS011;34453;52.198;5.004;2023-04-15T06:55:46;13.27;;;9.35;;
48667;SDS011;34453;52.198;5.004;2023-04-15T06:58:11;13.05;;;9.57;;
48667;SDS011;34453;52.198;5.004;2023-04-15T07:00:36;9.90;;;8.90;;
48667;SDS011;34453;52.198;5.004;2023-04-15T07:03:04;13.82;;;10.38;;
48667;SDS011;34453;52.198;5.004;2023-04-15T07:05:29;9.65;;;8.65;;
48667;SDS011;34453;52.198;5.004;2023-04-15T07:07:56;14.57;;;9.38;;
48667;SDS011;34453;52.198;5.004;2023-04-15T07:10:22;10.25;;;9.02;;
48667;SDS011;34453;52.198;5.004;2023-04-15T07:12:48;10.18;;;9.27;;
48667;SDS011;34453;52.198;5.004;2023-04-15T07:15:14;18.60;;;9.50;;
48667;SDS011;34453;52.198;5.004;2023-04-15T07:17:40;10.38;;;8.60;;
48667;SDS011;34453;52.198;5.004;2023-04-15T07:20:07;12.00;;;9.55;;
48667;SDS011;34453;52.198;5.004;2023-04-15T07:22:33;10.43;;;9.30;;
48667;SDS011;34453;52.198;5.004;2023-04-15T07:24:59;10.75;;;9.45;;
48667;SDS011;34453;52.198;5.004;2023-04-15T07:27:25;9.35;;;8.43;;
48667;SDS011;34453;52.198;5.004;2023-04-15T07:29:51;9.20;;;8.30;;
48667;SDS011;34453;52.198;5.004;2023-04-15T07:32:17;16.08;;;8.77;;
48667;SDS011;34453;52.198;5.004;2023-04-15T07:34:43;8.82;;;7.95;;
48667;SDS011;34453;52.198;5.004;2023-04-15T07:37:08;8.60;;;7.90;;
48667;SDS011;34453;52.198;5.004;2023-04-15T07:39:34;7.30;;;6.60;;
48667;SDS011;34453;52.198;5.004;2023-04-15T07:42:01;8.65;;;6.95;;
48667;SDS011;34453;52.198;5.004;2023-04-15T07:44:28;7.10;;;6.50;;
48667;SDS011;34453;52.198;5.004;2023-04-15T07:46:54;6.72;;;6.22;;
48667;SDS011;34453;52.198;5.004;2023-04-15T07:49:20;5.80;;;5.50;;
48667;SDS011;34453;52.198;5.004;2023-04-15T07:51:47;5.65;;;4.63;;
48667;SDS011;34453;52.198;5.004;2023-04-15T07:54:13;5.63;;;5.13;;
48667;SDS011;34453;52.198;5.004;2023-04-15T07:56:39;5.70;;;4.88;;
48667;SDS011;34453;52.198;5.004;2023-04-15T07:59:05;5.57;;;5.18;;
48667;SDS011;34453;52.198;5.004;2023-04-15T08:01:31;5.82;;;5.32;;
48667;SDS011;34453;52.198;5.004;2023-04-15T08:03:57;5.80;;;5.20;;
48667;SDS011;34453;52.198;5.004;2023-04-15T08:06:23;9.48;;;5.03;;
48667;SDS011;34453;52.198;5.004;2023-04-15T08:08:49;5.10;;;4.70;;
48667;SDS011;34453;52.198;5.004;2023-04-15T08:11:14;7.20;;;4.80;;
48667;SDS011;34453;52.198;5.004;2023-04-15T08:13:40;5.93;;;5.32;;
48667;SDS011;34453;52.198;5.004;2023-04-15T08:16:17;5.43;;;4.95;;
48667;SDS011;34453;52.198;5.004;2023-04-15T08:18:45;8.23;;;5.35;;
48667;SDS011;34453;52.198;5.004;2023-04-15T08:21:11;5.65;;;5.28;;
48667;SDS011;34453;52.198;5.004;2023-04-15T08:23:37;5.45;;;4.90;;
48667;SDS011;34453;52.198;5.004;2023-04-15T08:26:03;7.38;;;5.63;;
48667;SDS011;34453;52.198;5.004;2023-04-15T08:28:28;5.80;;;5.20;;
48667;SDS011;34453;52.198;5.004;2023-04-15T08:30:54;8.65;;;5.65;;
48667;SDS011;34453;52.198;5.004;2023-04-15T08:33:20;8.63;;;5.82;;
48667;SDS011;34453;52.198;5.004;2023-04-15T08:35:46;5.15;;;4.75;;
48667;SDS011;34453;52.198;5.004;2023-04-15T08:38:11;5.82;;;5.35;;
48667;SDS011;34453;52.198;5.004;2023-04-15T08:40:40;6.53;;;5.32;;
48667;SDS011;34453;52.198;5.004;2023-04-15T08:43:23;5.35;;;5.00;;
48667;SDS011;34453;52.198;5.004;2023-04-15T08:45:52;4.78;;;4.25;;
48667;SDS011;34453;52.198;5.004;2023-04-15T08:48:19;5.60;;;5.07;;
48667;SDS011;34453;52.198;5.004;2023-04-15T08:50:46;9.10;;;5.35;;
48667;SDS011;34453;52.198;5.004;2023-04-15T08:53:13;5.53;;;4.97;;
48667;SDS011;34453;52.198;5.004;2023-04-15T08:55:43;4.55;;;4.15;;
48667;SDS011;34453;52.198;5.004;2023-04-15T08:58:10;6.47;;;4.30;;
48667;SDS011;34453;52.198;5.004;2023-04-15T09:00:36;4.45;;;3.92;;
48667;SDS011;34453;52.198;5.004;2023-04-15T09:03:05;4.15;;;3.90;;
48667;SDS011;34453;52.198;5.004;2023-04-15T09:08:14;10.68;;;4.28;;
48667;SDS011;34453;52.198;5.004;2023-04-15T09:10:40;7.45;;;3.95;;
48667;SDS011;34453;52.198;5.004;2023-04-15T09:13:05;4.25;;;3.50;;
48667;SDS011;34453;52.198;5.004;2023-04-15T09:15:31;4.53;;;4.13;;
48667;SDS011;34453;52.198;5.004;2023-04-15T09:17:57;4.88;;;4.13;;
48667;SDS011;34453;52.198;5.004;2023-04-15T09:20:23;5.75;;;4.63;;
48667;SDS011;34453;52.198;5.004;2023-04-15T09:22:48;5.00;;;3.88;;
48667;SDS011;34453;52.198;5.004;2023-04-15T09:25:25;3.13;;;2.92;;
48667;SDS011;34453;52.198;5.004;2023-04-15T09:27:56;5.93;;;3.35;;
48667;SDS011;34453;52.198;5.004;2023-04-15T09:30:24;6.78;;;3.15;;
48667;SDS011;34453;52.198;5.004;2023-04-15T09:32:52;3.75;;;2.88;;
48667;SDS011;34453;52.198;5.004;2023-04-15T09:35:19;3.45;;;2.53;;
48667;SDS011;34453;52.198;5.004;2023-04-15T09:37:46;2.38;;;2.28;;
48667;SDS011;34453;52.198;5.004;2023-04-15T09:40:12;3.28;;;3.13;;
48667;SDS011;34453;52.198;5.004;2023-04-15T09:42:56;3.30;;;3.10;;
48667;SDS011;34453;52.198;5.004;2023-04-15T09:45:22;7.15;;;3.58;;
48667;SDS011;34453;52.198;5.004;2023-04-15T09:47:48;9.75;;;3.58;;
48667;SDS011;34453;52.198;5.004;2023-04-15T09:50:15;3.92;;;3.50;;
48667;SDS011;34453;52.198;5.004;2023-04-15T09:52:42;4.55;;;3.90;;
48667;SDS011;34453;52.198;5.004;2023-04-15T09:55:09;4.13;;;3.72;;
48667;SDS011;34453;52.198;5.004;2023-04-15T09:57:36;3.90;;;3.70;;
48667;SDS011;34453;52.198;5.004;2023-04-15T10:00:04;4.53;;;3.35;;
48667;SDS011;34453;52.198;5.004;2023-04-15T10:02:33;3.78;;;3.58;;
48667;SDS011;34453;52.198;5.004;2023-04-15T10:05:00;3.53;;;3.33;;
48667;SDS011;34453;52.198;5.004;2023-04-15T10:07:26;4.90;;;4.50;;
48667;SDS011;34453;52.198;5.004;2023-04-15T10:09:51;5.15;;;4.70;;
48667;SDS011;34453;52.198;5.004;2023-04-15T10:12:17;5.10;;;4.53;;
48667;SDS011;34453;52.198;5.004;2023-04-15T10:14:44;5.00;;;4.57;;
48667;SDS011;34453;52.198;5.004;2023-04-15T10:17:13;6.18;;;5.40;;
48667;SDS011;34453;52.198;5.004;2023-04-15T10:19:42;5.55;;;4.88;;
48667;SDS011;34453;52.198;5.004;2023-04-15T10:22:08;5.90;;;5.07;;
48667;SDS011;34453;52.198;5.004;2023-04-15T10:24:34;6.15;;;5.65;;
48667;SDS011;34453;52.198;5.004;2023-04-15T10:27:02;6.97;;;5.35;;
48667;SDS011;34453;52.198;5.004;2023-04-15T10:29:28;5.88;;;5.22;;
48667;SDS011;34453;52.198;5.004;2023-04-15T10:31:54;8.07;;;6.15;;
48667;SDS011;34453;52.198;5.004;2023-04-15T10:34:20;7.03;;;6.30;;
48667;SDS011;34453;52.198;5.004;2023-04-15T10:36:48;7.82;;;6.22;;
48667;SDS011;34453;52.198;5.004;2023-04-15T10:42:05;7.72;;;5.90;;
48667;SDS011;34453;52.198;5.004;2023-04-15T10:44:43;6.65;;;5.78;;
48667;SDS011;34453;52.198;5.004;2023-04-15T10:47:13;5.82;;;5.43;;
48667;SDS011;34453;52.198;5.004;2023-04-15T10:50:04;7.35;;;6.65;;
48667;SDS011;34453;52.198;5.004;2023-04-15T10:52:29;7.32;;;5.40;;
48667;SDS011;34453;52.198;5.004;2023-04-15T10:55:02;5.97;;;5.32;;
48667;SDS011;34453;52.198;5.004;2023-04-15T10:57:39;10.88;;;5.38;;
48667;SDS011;34453;52.198;5.004;2023-04-15T11:02:45;4.45;;;4.13;;
48667;SDS011;34453;52.198;5.004;2023-04-15T11:05:12;6.35;;;5.18;;
48667;SDS011;34453;52.198;5.004;2023-04-15T11:07:40;5.47;;;5.05;;
48667;SDS011;34453;52.198;5.004;2023-04-15T11:12:50;6.25;;;5.75;;
48667;SDS011;34453;52.198;5.004;2023-04-15T11:18:13;10.25;;;3.70;;
48667;SDS011;34453;52.198;5.004;2023-04-15T11:20:41;9.10;;;3.50;;
48667;SDS011;34453;52.198;5.004;2023-04-15T11:23:09;4.38;;;3.97;;
48667;SDS011;34453;52.198;5.004;2023-04-15T11:25:36;4.32;;;4.13;;
48667;SDS011;34453;52.198;5.004;2023-04-15T11:28:02;4.10;;;3.70;;
48667;SDS011;34453;52.198;5.004;2023-04-15T11:30:29;4.40;;;3.22;;
48667;SDS011;34453;52.198;5.004;2023-04-15T11:32:57;3.47;;;3.17;;
48667;SDS011;34453;52.198;5.004;2023-04-15T11:35:24;3.90;;;3.08;;
48667;SDS011;34453;52.198;5.004;2023-04-15T11:37:49;3.35;;;3.05;;
48667;SDS011;34453;52.198;5.004;2023-04-15T11:40:22;3.13;;;2.80;;
48667;SDS011;34453;52.198;5.004;2023-04-15T11:45:54;4.03;;;3.63;;
48667;SDS011;34453;52.198;5.004;2023-04-15T11:48:23;3.88;;;3.58;;
48667;SDS011;34453;52.198;5.004;2023-04-15T11:50:56;4.75;;;3.58;;
48667;SDS011;34453;52.198;5.004;2023-04-15T11:56:05;3.35;;;2.92;;
48667;SDS011;34453;52.198;5.004;2023-04-15T11:58:33;4.28;;;3.45;;
48667;SDS011;34453;52.198;5.004;2023-04-15T12:01:02;4.93;;;3.08;;
48667;SDS011;34453;52.198;5.004;2023-04-15T12:06:10;2.60;;;2.30;;
48667;SDS011;34453;52.198;5.004;2023-04-15T12:16:54;3.75;;;3.42;;
48667;SDS011;34453;52.198;5.004;2023-04-15T12:19:24;4.40;;;3.20;;
48667;SDS011;34453;52.198;5.004;2023-04-15T12:21:51;3.30;;;3.00;;
48667;SDS011;34453;52.198;5.004;2023-04-15T12:24:19;3.88;;;2.90;;
48667;SDS011;34453;52.198;5.004;2023-04-15T12:26:48;2.92;;;2.75;;
48667;SDS011;34453;52.198;5.004;2023-04-15T12:29:19;3.53;;;3.22;;
48667;SDS011;34453;52.198;5.004;2023-04-15T12:31:46;4.05;;;2.08;;
48667;SDS011;34453;52.198;5.004;2023-04-15T12:34:13;4.43;;;3.15;;
48667;SDS011;34453;52.198;5.004;2023-04-15T12:36:39;2.35;;;2.15;;
48667;SDS011;34453;52.198;5.004;2023-04-15T12:39:05;3.75;;;2.38;;
48667;SDS011;34453;52.198;5.004;2023-04-15T12:41:31;1.55;;;1.42;;
48667;SDS011;34453;52.198;5.004;2023-04-15T12:43:57;3.72;;;2.03;;
48667;SDS011;34453;52.198;5.004;2023-04-15T12:46:23;5.63;;;2.00;;
48667;SDS011;34453;52.198;5.004;2023-04-15T12:48:49;2.53;;;2.35;;
48667;SDS011;34453;52.198;5.004;2023-04-15T12:51:15;3.35;;;1.40;;
48667;SDS011;34453;52.198;5.004;2023-04-15T12:53:40;1.77;;;1.23;;
48667;SDS011;34453;52.198;5.004;2023-04-15T12:56:06;1.92;;;1.50;;
48667;SDS011;34453;52.198;5.004;2023-04-15T12:58:31;4.55;;;1.60;;
48667;SDS011;34453;52.198;5.004;2023-04-15T13:00:57;2.50;;;1.20;;
48667;SDS011;34453;52.198;5.004;2023-04-15T13:03:23;3.92;;;1.55;;
48667;SDS011;34453;52.198;5.004;2023-04-15T13:05:48;2.45;;;1.33;;
48667;SDS011;34453;52.198;5.004;2023-04-15T13:08:14;3.42;;;1.63;;
48667;SDS011;34453;52.198;5.004;2023-04-15T13:10:39;3.75;;;1.60;;
48667;SDS011;34453;52.198;5.004;2023-04-15T13:13:06;3.05;;;1.50;;
48667;SDS011;34453;52.198;5.004;2023-04-15T13:15:32;5.05;;;1.80;;
48667;SDS011;34453;52.198;5.004;2023-04-15T13:17:57;4.80;;;1.95;;
48667;SDS011;34453;52.198;5.004;2023-04-15T13:20:23;2.20;;;1.75;;
48667;SDS011;34453;52.198;5.004;2023-04-15T13:22:51;4.72;;;1.73;;
48667;SDS011;34453;52.198;5.004;2023-04-15T13:25:16;7.30;;;2.17;;
48667;SDS011;34453;52.198;5.004;2023-04-15T13:27:42;3.10;;;2.17;;
48667;SDS011;34453;52.198;5.004;2023-04-15T13:30:07;2.38;;;2.15;;
48667;SDS011;34453;52.198;5.004;2023-04-15T13:32:33;2.72;;;1.83;;
48667;SDS011;34453;52.198;5.004;2023-04-15T13:34:59;1.83;;;1.10;;
48667;SDS011;34453;52.198;5.004;2023-04-15T13:37:28;2.00;;;1.40;;
48667;SDS011;34453;52.198;5.004;2023-04-15T13:39:55;1.77;;;1.27;;
48667;SDS011;34453;52.198;5.004;2023-04-15T13:42:21;1.13;;;1.05;;
48667;SDS011;34453;52.198;5.004;2023-04-15T13:44:48;2.13;;;1.52;;
48667;SDS011;34453;52.198;5.004;2023-04-15T13:47:13;1.83;;;1.70;;
48667;SDS011;34453;52.198;5.004;2023-04-15T13:49:40;1.40;;;1.30;;
48667;SDS011;34453;52.198;5.004;2023-04-15T13:52:05;2.40;;;1.20;;
48667;SDS011;34453;52.198;5.004;2023-04-15T13:54:32;3.75;;;1.27;;
48667;SDS011;34453;52.198;5.004;2023-04-15T13:56:57;1.88;;;1.35;;
48667;SDS011;34453;52.198;5.004;2023-04-15T13:59:23;1.30;;;1.20;;
48667;SDS011;34453;52.198;5.004;2023-04-15T14:01:48;4.00;;;1.42;;
48667;SDS011;34453;52.198;5.004;2023-04-15T14:04:14;1.60;;;1.05;;
48667;SDS011;34453;52.198;5.004;2023-04-15T14:06:39;4.85;;;1.13;;
48667;SDS011;34453;52.198;5.004;2023-04-15T14:09:05;1.20;;;1.10;;
48667;SDS011;34453;52.198;5.004;2023-04-15T14:11:30;2.88;;;0.90;;
48667;SDS011;34453;52.198;5.004;2023-04-15T14:13:56;4.95;;;1.08;;
48667;SDS011;34453;52.198;5.004;2023-04-15T14:16:21;4.13;;;1.27;;
48667;SDS011;34453;52.198;5.004;2023-04-15T14:18:47;2.30;;;0.88;;
48667;SDS011;34453;52.198;5.004;2023-04-15T14:21:12;6.82;;;1.27;;
48667;SDS011;34453;52.198;5.004;2023-04-15T14:23:38;2.75;;;0.98;;
48667;SDS011;34453;52.198;5.004;2023-04-15T14:26:03;3.45;;;1.20;;
48667;SDS011;34453;52.198;5.004;2023-04-15T14:28:29;3.28;;;1.35;;
48667;SDS011;34453;52.198;5.004;2023-04-15T14:30:54;2.58;;;1.23;;
48667;SDS011;34453;52.198;5.004;2023-04-15T14:33:20;5.93;;;1.10;;
48667;SDS011;34453;52.198;5.004;2023-04-15T14:35:45;4.93;;;1.52;;
48667;SDS011;34453;52.198;5.004;2023-04-15T14:38:10;6.78;;;1.70;;
48667;SDS011;34453;52.198;5.004;2023-04-15T14:40:36;2.42;;;1.00;;
48667;SDS011;34453;52.198;5.004;2023-04-15T14:43:01;3.42;;;1.20;;
48667;SDS011;34453;52.198;5.004;2023-04-15T14:45:28;3.38;;;1.33;;
48667;SDS011;34453;52.198;5.004;2023-04-15T14:47:54;6.53;;;1.40;;
48667;SDS011;34453;52.198;5.004;2023-04-15T14:50:20;4.55;;;1.20;;
48667;SDS011;34453;52.198;5.004;2023-04-15T14:52:46;3.80;;;1.30;;
48667;SDS011;34453;52.198;5.004;2023-04-15T14:55:12;3.38;;;1.48;;
48667;SDS011;34453;52.198;5.004;2023-04-15T14:57:38;5.32;;;1.20;;
48667;SDS011;34453;52.198;5.004;2023-04-15T15:00:04;3.38;;;1.15;;
48667;SDS011;34453;52.198;5.004;2023-04-15T15:02:31;4.75;;;1.30;;
48667;SDS011;34453;52.198;5.004;2023-04-15T15:04:59;2.60;;;1.30;;
48667;SDS011;34453;52.198;5.004;2023-04-15T15:07:25;6.10;;;1.00;;
48667;SDS011;34453;52.198;5.004;2023-04-15T15:09:51;5.10;;;1.73;;